sensor_id;sensor_type;location;lat;lon;timestamp;pressure;altitude;pressure_sealevel;temperature;humidity
11339;BME280;5724;42.684;23.252;2023-03-20T00:00:38;94673.69;;;5.87;69.69
11339;BME280;5724;42.684;23.252;2023-03-20T00:03:09;94665.09;;;5.77;69.41
11339;BME280;5724;42.684;23.252;2023-03-20T00:05:35;94664.31;;;5.67;69.92
11339;BME280;5724;42.684;23.252;2023-03-20T00:08:01;94665.09;;;5.59;70.25
11339;BME280;5724;42.684;23.252;2023-03-20T00:10:33;94656.34;;;5.54;69.91
11339;BME280;5724;42.684;23.252;2023-03-20T00:12:59;94656.16;;;5.59;69.28
11339;BME280;5724;42.684;23.252;2023-03-20T00:15:29;94650.44;;;5.52;69.84
11339;BME280;5724;42.684;23.252;2023-03-20T00:17:55;94648.53;;;5.61;69.42
11339;BME280;5724;42.684;23.252;2023-03-20T00:20:21;94653.78;;;5.66;68.46
11339;BME280;5724;42.684;23.252;2023-03-20T00:22:47;94653.00;;;5.65;69.05
11339;BME280;5724;42.684;23.252;2023-03-20T00:25:15;94649.34;;;5.61;69.27
11339;BME280;5724;42.684;23.252;2023-03-20T00:27:42;94647.72;;;5.69;68.45
11339;BME280;5724;42.684;23.252;2023-03-20T00:30:28;94646.44;;;5.66;68.64
11339;BME280;5724;42.684;23.252;2023-03-20T00:32:56;94650.28;;;5.65;69.51
11339;BME280;5724;42.684;23.252;2023-03-20T00:35:29;94641.03;;;5.49;69.60
11339;BME280;5724;42.684;23.252;2023-03-20T00:37:56;94642.31;;;5.43;69.98
11339;BME280;5724;42.684;23.252;2023-03-20T00:40:26;94640.41;;;5.35;69.83
11339;BME280;5724;42.684;23.252;2023-03-20T00:42:58;94644.06;;;5.39;70.27
11339;BME280;5724;42.684;23.252;2023-03-20T00:45:24;94637.22;;;5.41;70.44
11339;BME280;5724;42.684;23.252;2023-03-20T00:47:50;94641.84;;;5.32;70.87
11339;BME280;5724;42.684;23.252;2023-03-20T00:52:43;94639.94;;;5.33;71.12
11339;BME280;5724;42.684;23.252;2023-03-20T00:55:09;94642.16;;;5.31;71.03
11339;BME280;5724;42.684;23.252;2023-03-20T00:57:41;94644.69;;;5.27;71.53
11339;BME280;5724;42.684;23.252;2023-03-20T01:00:20;94639.75;;;5.21;71.62
11339;BME280;5724;42.684;23.252;2023-03-20T01:02:47;94628.09;;;5.03;72.34
11339;BME280;5724;42.684;23.252;2023-03-20T01:05:13;94632.72;;;5.02;72.85
11339;BME280;5724;42.684;23.252;2023-03-20T01:07:38;94628.09;;;5.03;72.27
11339;BME280;5724;42.684;23.252;2023-03-20T01:10:05;94626.00;;;5.00;72.79
11339;BME280;5724;42.684;23.252;2023-03-20T01:12:31;94628.41;;;5.01;72.86
11339;BME280;5724;42.684;23.252;2023-03-20T01:14:57;94617.56;;;5.01;73.03
11339;BME280;5724;42.684;23.252;2023-03-20T01:17:25;94626.34;;;4.98;73.18
11339;BME280;5724;42.684;23.252;2023-03-20T01:19:51;94620.59;;;4.91;73.04
11339;BME280;5724;42.684;23.252;2023-03-20T01:22:17;94610.72;;;4.86;73.31
11339;BME280;5724;42.684;23.252;2023-03-20T01:24:43;94619.63;;;4.87;74.24
11339;BME280;5724;42.684;23.252;2023-03-20T01:27:17;94614.84;;;4.75;73.74
11339;BME280;5724;42.684;23.252;2023-03-20T01:29:43;94613.75;;;4.85;73.88
11339;BME280;5724;42.684;23.252;2023-03-20T01:32:11;94606.25;;;4.91;73.92
11339;BME280;5724;42.684;23.252;2023-03-20T01:34:37;94617.75;;;4.96;72.91
11339;BME280;5724;42.684;23.252;2023-03-20T01:37:02;94613.91;;;4.97;72.65
11339;BME280;5724;42.684;23.252;2023-03-20T01:39:32;94617.41;;;4.98;73.13
11339;BME280;5724;42.684;23.252;2023-03-20T01:41:58;94617.56;;;5.01;72.89
11339;BME280;5724;42.684;23.252;2023-03-20T01:44:29;94618.06;;;4.95;73.65
11339;BME280;5724;42.684;23.252;2023-03-20T01:46:55;94620.44;;;4.96;72.76
11339;BME280;5724;42.684;23.252;2023-03-20T01:51:47;94629.34;;;4.88;73.58
11339;BME280;5724;42.684;23.252;2023-03-20T01:56:57;94624.72;;;4.88;72.80
11339;BME280;5724;42.684;23.252;2023-03-20T01:59:49;94578.91;;;4.44;73.00
11339;BME280;5724;42.684;23.252;2023-03-20T02:02:15;94620.88;;;4.81;72.63
11339;BME280;5724;42.684;23.252;2023-03-20T02:04:44;94621.03;;;4.76;73.21
11339;BME280;5724;42.684;23.252;2023-03-20T02:07:12;94620.56;;;4.74;73.72
11339;BME280;5724;42.684;23.252;2023-03-20T02:09:40;94623.56;;;4.64;73.57
11339;BME280;5724;42.684;23.252;2023-03-20T02:12:05;94616.69;;;4.57;74.33
11339;BME280;5724;42.684;23.252;2023-03-20T02:14:32;94614.31;;;4.56;74.46
11339;BME280;5724;42.684;23.252;2023-03-20T02:16:57;94619.38;;;4.49;74.63
11339;BME280;5724;42.684;23.252;2023-03-20T02:19:30;94621.25;;;4.40;75.14
11339;BME280;5724;42.684;23.252;2023-03-20T02:36:49;94615.06;;;4.48;74.12
11339;BME280;5724;42.684;23.252;2023-03-20T02:47:52;94617.63;;;4.44;74.86
11339;BME280;5724;42.684;23.252;2023-03-20T02:55:41;94611.81;;;4.28;75.58
11339;BME280;5724;42.684;23.252;2023-03-20T02:58:11;94614.00;;;4.18;75.84
11339;BME280;5724;42.684;23.252;2023-03-20T03:00:54;94606.81;;;4.13;75.46
11339;BME280;5724;42.684;23.252;2023-03-20T03:05:52;94604.53;;;3.98;76.20
11339;BME280;5724;42.684;23.252;2023-03-20T03:08:20;94612.31;;;3.99;76.13
11339;BME280;5724;42.684;23.252;2023-03-20T03:10:54;94609.13;;;3.97;76.07
11339;BME280;5724;42.684;23.252;2023-03-20T03:13:27;94604.69;;;4.01;75.84
11339;BME280;5724;42.684;23.252;2023-03-20T03:15:56;94606.34;;;4.11;75.91
11339;BME280;5724;42.684;23.252;2023-03-20T03:18:27;94613.00;;;4.14;75.21
11339;BME280;5724;42.684;23.252;2023-03-20T03:20:56;94607.59;;;4.14;75.58
11339;BME280;5724;42.684;23.252;2023-03-20T03:23:44;94607.03;;;4.25;75.31
11339;BME280;5724;42.684;23.252;2023-03-20T03:26:21;94599.56;;;4.31;74.90
11339;BME280;5724;42.684;23.252;2023-03-20T03:28:52;94599.44;;;4.36;75.06
11339;BME280;5724;42.684;23.252;2023-03-20T03:31:20;94607.06;;;4.34;74.90
11339;BME280;5724;42.684;23.252;2023-03-20T03:33:51;94612.91;;;4.19;75.22
11339;BME280;5724;42.684;23.252;2023-03-20T03:36:39;94608.44;;;4.23;75.60
11339;BME280;5724;42.684;23.252;2023-03-20T03:41:56;94613.28;;;4.35;74.87
11339;BME280;5724;42.684;23.252;2023-03-20T03:44:43;94602.44;;;4.26;75.42
11339;BME280;5724;42.684;23.252;2023-03-20T03:47:19;94601.47;;;4.30;75.17
11339;BME280;5724;42.684;23.252;2023-03-20T03:49:49;94604.16;;;4.22;75.46
11339;BME280;5724;42.684;23.252;2023-03-20T03:52:20;94607.31;;;4.15;75.85
11339;BME280;5724;42.684;23.252;2023-03-20T03:54:50;94585.50;;;4.12;75.59
11339;BME280;5724;42.684;23.252;2023-03-20T03:57:22;94567.53;;;4.07;75.08
11339;BME280;5724;42.684;23.252;2023-03-20T03:59:50;94588.88;;;4.17;75.87
11339;BME280;5724;42.684;23.252;2023-03-20T04:02:18;94592.88;;;4.28;75.76
11339;BME280;5724;42.684;23.252;2023-03-20T04:04:47;94593.31;;;4.22;75.41
11339;BME280;5724;42.684;23.252;2023-03-20T04:07:14;94590.81;;;4.25;75.63
11339;BME280;5724;42.684;23.252;2023-03-20T04:09:40;94598.25;;;4.20;75.82
11339;BME280;5724;42.684;23.252;2023-03-20T04:12:32;94586.22;;;4.26;75.93
11339;BME280;5724;42.684;23.252;2023-03-20T04:14:55;94586.69;;;4.28;75.76
11339;BME280;5724;42.684;23.252;2023-03-20T04:17:21;94583.34;;;4.31;75.94
11339;BME280;5724;42.684;23.252;2023-03-20T04:19:46;94573.97;;;4.28;76.00
11339;BME280;5724;42.684;23.252;2023-03-20T04:22:12;94570.63;;;4.31;75.57
11339;BME280;5724;42.684;23.252;2023-03-20T04:24:37;94576.81;;;4.32;75.47
11339;BME280;5724;42.684;23.252;2023-03-20T04:27:02;94582.19;;;4.23;75.34
11339;BME280;5724;42.684;23.252;2023-03-20T04:29:28;94573.56;;;4.13;76.41
11339;BME280;5724;42.684;23.252;2023-03-20T04:31:54;94579.16;;;3.85;77.19
11339;BME280;5724;42.684;23.252;2023-03-20T04:34:21;94581.25;;;3.88;77.96
11339;BME280;5724;42.684;23.252;2023-03-20T04:36:47;94582.59;;;3.99;77.32
11339;BME280;5724;42.684;23.252;2023-03-20T04:39:12;94594.50;;;3.98;77.46
11339;BME280;5724;42.684;23.252;2023-03-20T04:41:38;94600.53;;;3.95;77.89
11339;BME280;5724;42.684;23.252;2023-03-20T04:44:03;94604.69;;;4.01;77.89
11339;BME280;5724;42.684;23.252;2023-03-20T04:46:29;94607.41;;;4.01;77.93
11339;BME280;5724;42.684;23.252;2023-03-20T04:48:54;94613.47;;;4.07;77.63
11339;BME280;5724;42.684;23.252;2023-03-20T04:51:20;94624.63;;;4.14;77.57
11339;BME280;5724;42.684;23.252;2023-03-20T04:53:45;94628.13;;;4.15;78.03
11339;BME280;5724;42.684;23.252;2023-03-20T04:56:12;94620.00;;;4.15;77.68
11339;BME280;5724;42.684;23.252;2023-03-20T04:58:37;94620.22;;;4.18;77.66
11339;BME280;5724;42.684;23.252;2023-03-20T05:01:03;94611.81;;;4.28;77.19
11339;BME280;5724;42.684;23.252;2023-03-20T05:03:28;94612.47;;;4.34;76.64
11339;BME280;5724;42.684;23.252;2023-03-20T05:05:53;94620.28;;;4.36;76.90
11339;BME280;5724;42.684;23.252;2023-03-20T05:08:19;94618.69;;;4.43;76.56
11339;BME280;5724;42.684;23.252;2023-03-20T05:10:44;94625.22;;;4.42;76.85
11339;BME280;5724;42.684;23.252;2023-03-20T05:13:10;94622.56;;;4.51;76.44
11339;BME280;5724;42.684;23.252;2023-03-20T05:15:35;94614.63;;;4.54;76.63
11339;BME280;5724;42.684;23.252;2023-03-20T05:18:02;94625.56;;;4.49;75.88
11339;BME280;5724;42.684;23.252;2023-03-20T05:20:27;94627.63;;;4.44;75.34
11339;BME280;5724;42.684;23.252;2023-03-20T05:22:53;94628.75;;;4.51;75.61
11339;BME280;5724;42.684;23.252;2023-03-20T05:25:18;94615.59;;;4.19;76.04
11339;BME280;5724;42.684;23.252;2023-03-20T05:27:44;94630.94;;;4.41;76.43
11339;BME280;5724;42.684;23.252;2023-03-20T05:30:12;94631.63;;;4.46;75.59
11339;BME280;5724;42.684;23.252;2023-03-20T05:32:37;94628.91;;;4.46;75.34
11339;BME280;5724;42.684;23.252;2023-03-20T05:35:04;94614.13;;;4.52;76.02
11339;BME280;5724;42.684;23.252;2023-03-20T05:37:29;94636.63;;;4.70;75.98
11339;BME280;5724;42.684;23.252;2023-03-20T05:39:55;94632.50;;;4.81;76.45
11339;BME280;5724;42.684;23.252;2023-03-20T05:42:20;94633.34;;;4.99;76.12
11339;BME280;5724;42.684;23.252;2023-03-20T05:44:46;94634.00;;;5.13;75.70
11339;BME280;5724;42.684;23.252;2023-03-20T05:47:11;94638.47;;;5.27;74.70
11339;BME280;5724;42.684;23.252;2023-03-20T05:49:36;94622.38;;;5.30;74.63
11339;BME280;5724;42.684;23.252;2023-03-20T05:52:02;94634.81;;;5.49;72.72
11339;BME280;5724;42.684;23.252;2023-03-20T05:54:27;94642.63;;;5.67;72.55
11339;BME280;5724;42.684;23.252;2023-03-20T05:56:53;94642.13;;;5.83;71.75
11339;BME280;5724;42.684;23.252;2023-03-20T05:59:18;94641.66;;;5.98;71.86
11339;BME280;5724;42.684;23.252;2023-03-20T06:01:44;94638.44;;;6.13;72.17
11339;BME280;5724;42.684;23.252;2023-03-20T06:04:09;94633.47;;;6.15;72.30
11339;BME280;5724;42.684;23.252;2023-03-20T06:06:35;94645.91;;;6.16;72.43
11339;BME280;5724;42.684;23.252;2023-03-20T06:09:03;94639.09;;;6.01;71.59
11339;BME280;5724;42.684;23.252;2023-03-20T06:11:28;94636.06;;;5.86;72.85
11339;BME280;5724;42.684;23.252;2023-03-20T06:13:54;94643.59;;;5.71;72.08
11339;BME280;5724;42.684;23.252;2023-03-20T06:16:20;94638.63;;;5.30;73.15
11339;BME280;5724;42.684;23.252;2023-03-20T06:18:45;94638.63;;;5.30;73.57
11339;BME280;5724;42.684;23.252;2023-03-20T06:21:11;94635.59;;;5.14;73.74
11339;BME280;5724;42.684;23.252;2023-03-20T06:23:37;94634.31;;;5.29;73.06
11339;BME280;5724;42.684;23.252;2023-03-20T06:26:03;94634.34;;;5.64;72.65
11339;BME280;5724;42.684;23.252;2023-03-20T06:28:29;94644.53;;;5.93;72.92
11339;BME280;5724;42.684;23.252;2023-03-20T06:30:55;94649.94;;;6.10;73.60
11339;BME280;5724;42.684;23.252;2023-03-20T06:33:21;94644.47;;;6.27;73.79
11339;BME280;5724;42.684;23.252;2023-03-20T06:35:46;94640.56;;;6.46;72.68
11339;BME280;5724;42.684;23.252;2023-03-20T06:38:13;94657.25;;;6.65;72.34
11339;BME280;5724;42.684;23.252;2023-03-20T06:40:38;94654.91;;;6.84;71.57
11339;BME280;5724;42.684;23.252;2023-03-20T06:43:04;94654.84;;;7.02;71.08
11339;BME280;5724;42.684;23.252;2023-03-20T06:45:30;94654.56;;;7.24;71.10
11339;BME280;5724;42.684;23.252;2023-03-20T06:47:55;94653.22;;;7.30;69.56
11339;BME280;5724;42.684;23.252;2023-03-20T06:50:21;94645.00;;;7.39;70.20
11339;BME280;5724;42.684;23.252;2023-03-20T06:52:46;94625.13;;;7.26;68.69
11339;BME280;5724;42.684;23.252;2023-03-20T06:55:12;94642.00;;;7.32;68.96
11339;BME280;5724;42.684;23.252;2023-03-20T06:57:38;94645.56;;;7.53;70.28
11339;BME280;5724;42.684;23.252;2023-03-20T07:00:05;94639.28;;;7.53;67.70
11339;BME280;5724;42.684;23.252;2023-03-20T07:02:30;94653.63;;;7.62;68.07
11339;BME280;5724;42.684;23.252;2023-03-20T07:04:56;94648.25;;;7.74;67.80
11339;BME280;5724;42.684;23.252;2023-03-20T07:07:21;94632.25;;;7.93;66.82
11339;BME280;5724;42.684;23.252;2023-03-20T07:09:47;94638.91;;;8.29;66.16
11339;BME280;5724;42.684;23.252;2023-03-20T07:12:15;94631.09;;;8.27;65.24
11339;BME280;5724;42.684;23.252;2023-03-20T07:14:41;94614.19;;;8.22;64.94
11339;BME280;5724;42.684;23.252;2023-03-20T07:17:10;94628.91;;;8.54;64.90
11339;BME280;5724;42.684;23.252;2023-03-20T07:19:36;94627.22;;;8.74;64.59
11339;BME280;5724;42.684;23.252;2023-03-20T07:22:05;94628.25;;;8.94;63.45
11339;BME280;5724;42.684;23.252;2023-03-20T07:24:32;94621.88;;;9.14;62.65
11339;BME280;5724;42.684;23.252;2023-03-20T07:26:57;94634.84;;;9.17;61.64
11339;BME280;5724;42.684;23.252;2023-03-20T07:29:23;94632.75;;;9.26;61.98
11339;BME280;5724;42.684;23.252;2023-03-20T07:31:49;94626.94;;;9.40;61.29
11339;BME280;5724;42.684;23.252;2023-03-20T07:34:15;94633.84;;;9.50;60.73
11339;BME280;5724;42.684;23.252;2023-03-20T07:36:40;94631.31;;;9.69;60.36
11339;BME280;5724;42.684;23.252;2023-03-20T07:39:06;94633.13;;;9.65;59.73
11339;BME280;5724;42.684;23.252;2023-03-20T07:41:32;94642.31;;;9.72;59.72
11339;BME280;5724;42.684;23.252;2023-03-20T07:43:58;94639.41;;;9.93;58.49
11339;BME280;5724;42.684;23.252;2023-03-20T07:46:23;94639.06;;;9.67;59.49
11339;BME280;5724;42.684;23.252;2023-03-20T07:48:49;94629.31;;;9.82;59.24
11339;BME280;5724;42.684;23.252;2023-03-20T07:51:15;94638.06;;;10.15;58.70
11339;BME280;5724;42.684;23.252;2023-03-20T07:53:40;94634.63;;;9.62;59.09
11339;BME280;5724;42.684;23.252;2023-03-20T07:56:07;94616.47;;;9.82;59.23
11339;BME280;5724;42.684;23.252;2023-03-20T07:58:33;94633.50;;;10.19;58.49
11339;BME280;5724;42.684;23.252;2023-03-20T08:00:58;94635.34;;;10.43;58.79
11339;BME280;5724;42.684;23.252;2023-03-20T08:03:24;94631.75;;;10.86;60.41
11339;BME280;5724;42.684;23.252;2023-03-20T08:05:49;94635.59;;;11.17;58.69
11339;BME280;5724;42.684;23.252;2023-03-20T08:08:14;94635.34;;;11.22;59.18
11339;BME280;5724;42.684;23.252;2023-03-20T08:10:40;94601.56;;;11.14;56.27
11339;BME280;5724;42.684;23.252;2023-03-20T08:13:05;94628.03;;;11.45;56.63
11339;BME280;5724;42.684;23.252;2023-03-20T08:15:31;94628.63;;;11.55;55.78
11339;BME280;5724;42.684;23.252;2023-03-20T08:17:56;94628.13;;;11.84;54.92
11339;BME280;5724;42.684;23.252;2023-03-20T08:20:23;94618.59;;;11.78;54.76
11339;BME280;5724;42.684;23.252;2023-03-20T08:22:48;94638.00;;;11.89;55.94
11339;BME280;5724;42.684;23.252;2023-03-20T08:25:14;94630.69;;;12.16;54.42
11339;BME280;5724;42.684;23.252;2023-03-20T08:27:40;94635.63;;;12.26;52.77
11339;BME280;5724;42.684;23.252;2023-03-20T08:30:06;94630.44;;;12.44;51.98
11339;BME280;5724;42.684;23.252;2023-03-20T08:32:33;94633.00;;;12.33;51.67
11339;BME280;5724;42.684;23.252;2023-03-20T08:34:58;94643.09;;;12.48;51.94
11339;BME280;5724;42.684;23.252;2023-03-20T08:37:24;94630.78;;;12.61;51.49
11339;BME280;5724;42.684;23.252;2023-03-20T08:39:49;94634.81;;;12.68;51.35
11339;BME280;5724;42.684;23.252;2023-03-20T08:42:15;94634.94;;;12.75;51.77
11339;BME280;5724;42.684;23.252;2023-03-20T08:44:40;94637.38;;;12.80;50.96
11339;BME280;5724;42.684;23.252;2023-03-20T08:47:06;94637.56;;;12.90;50.79
11339;BME280;5724;42.684;23.252;2023-03-20T08:49:35;94629.81;;;12.73;50.82
11339;BME280;5724;42.684;23.252;2023-03-20T08:52:01;94622.56;;;12.84;51.30
11339;BME280;5724;42.684;23.252;2023-03-20T08:54:26;94622.97;;;13.09;50.96
11339;BME280;5724;42.684;23.252;2023-03-20T08:56:52;94631.69;;;12.92;49.90
11339;BME280;5724;42.684;23.252;2023-03-20T08:59:17;94637.97;;;13.15;50.16
11339;BME280;5724;42.684;23.252;2023-03-20T09:01:44;94622.13;;;13.55;49.56
11339;BME280;5724;42.684;23.252;2023-03-20T09:04:11;94630.72;;;13.53;49.53
11339;BME280;5724;42.684;23.252;2023-03-20T09:06:37;94627.28;;;13.60;48.56
11339;BME280;5724;42.684;23.252;2023-03-20T09:09:03;94621.69;;;13.26;48.76
11339;BME280;5724;42.684;23.252;2023-03-20T09:11:29;94619.00;;;13.56;48.95
11339;BME280;5724;42.684;23.252;2023-03-20T09:13:54;94620.53;;;13.80;49.60
11339;BME280;5724;42.684;23.252;2023-03-20T09:16:20;94611.91;;;13.52;49.27
11339;BME280;5724;42.684;23.252;2023-03-20T09:18:45;94608.78;;;13.53;47.91
11339;BME280;5724;42.684;23.252;2023-03-20T09:21:10;94606.44;;;13.55;49.16
11339;BME280;5724;42.684;23.252;2023-03-20T09:23:36;94590.66;;;13.79;48.57
11339;BME280;5724;42.684;23.252;2023-03-20T09:26:01;94606.16;;;13.94;48.44
11339;BME280;5724;42.684;23.252;2023-03-20T09:28:27;94592.91;;;13.99;47.79
11339;BME280;5724;42.684;23.252;2023-03-20T09:30:57;94581.19;;;14.06;47.63
11339;BME280;5724;42.684;23.252;2023-03-20T09:33:22;94588.16;;;14.33;46.82
11339;BME280;5724;42.684;23.252;2023-03-20T09:35:48;94590.00;;;14.56;47.13
11339;BME280;5724;42.684;23.252;2023-03-20T09:38:13;94584.25;;;14.68;46.37
11339;BME280;5724;42.684;23.252;2023-03-20T09:40:56;94579.47;;;14.62;47.23
11339;BME280;5724;42.684;23.252;2023-03-20T09:46:31;94574.13;;;15.31;45.06
11339;BME280;5724;42.684;23.252;2023-03-20T09:49:12;94565.19;;;15.44;43.94
11339;BME280;5724;42.684;23.252;2023-03-20T09:52:00;94561.19;;;15.42;44.03
11339;BME280;5724;42.684;23.252;2023-03-20T09:54:35;94556.97;;;15.59;43.50
11339;BME280;5724;42.684;23.252;2023-03-20T09:57:02;94548.00;;;15.65;43.52
11339;BME280;5724;42.684;23.252;2023-03-20T09:59:31;94549.16;;;15.61;43.27
11339;BME280;5724;42.684;23.252;2023-03-20T10:04:28;94538.25;;;15.89;42.39
11339;BME280;5724;42.684;23.252;2023-03-20T10:06:54;94526.94;;;16.16;42.43
11339;BME280;5724;42.684;23.252;2023-03-20T10:09:25;94528.53;;;16.24;41.72
11339;BME280;5724;42.684;23.252;2023-03-20T10:12:09;94519.78;;;16.00;41.47
11339;BME280;5724;42.684;23.252;2023-03-20T10:14:55;94520.47;;;15.69;41.94
11339;BME280;5724;42.684;23.252;2023-03-20T10:20:27;94523.38;;;16.15;41.65
11339;BME280;5724;42.684;23.252;2023-03-20T10:23:01;94519.91;;;16.33;40.77
11339;BME280;5724;42.684;23.252;2023-03-20T10:25:33;94509.69;;;16.51;40.96
11339;BME280;5724;42.684;23.252;2023-03-20T10:28:13;94507.69;;;16.55;40.16
11339;BME280;5724;42.684;23.252;2023-03-20T10:31:04;94504.94;;;16.66;41.03
11339;BME280;5724;42.684;23.252;2023-03-20T10:39:45;94498.63;;;17.33;39.11
11339;BME280;5724;42.684;23.252;2023-03-20T10:42:27;94491.53;;;17.28;39.47
11339;BME280;5724;42.684;23.252;2023-03-20T10:45:02;94483.63;;;17.30;39.11
11339;BME280;5724;42.684;23.252;2023-03-20T10:47:33;94482.78;;;17.51;38.92
11339;BME280;5724;42.684;23.252;2023-03-20T10:50:05;94475.66;;;17.57;38.50
11339;BME280;5724;42.684;23.252;2023-03-20T10:52:35;94476.38;;;17.86;38.04
11339;BME280;5724;42.684;23.252;2023-03-20T10:57:34;94466.75;;;18.16;37.96
11339;BME280;5724;42.684;23.252;2023-03-20T11:00:04;94466.22;;;18.31;37.33
11339;BME280;5724;42.684;23.252;2023-03-20T11:02:35;94468.09;;;18.49;36.96
11339;BME280;5724;42.684;23.252;2023-03-20T11:05:17;94467.72;;;18.47;37.31
11339;BME280;5724;42.684;23.252;2023-03-20T11:07:46;94463.78;;;18.96;36.48
11339;BME280;5724;42.684;23.252;2023-03-20T11:10:13;94457.56;;;19.26;35.46
11339;BME280;5724;42.684;23.252;2023-03-20T11:12:48;94453.38;;;19.11;35.98
11339;BME280;5724;42.684;23.252;2023-03-20T11:15:26;94448.34;;;19.36;35.53
11339;BME280;5724;42.684;23.252;2023-03-20T11:20:23;94440.81;;;17.85;35.98
11339;BME280;5724;42.684;23.252;2023-03-20T11:22:49;94434.19;;;17.68;36.58
11339;BME280;5724;42.684;23.252;2023-03-20T11:25:43;94429.63;;;18.10;35.82
11339;BME280;5724;42.684;23.252;2023-03-20T11:28:29;94423.78;;;18.56;36.68
11339;BME280;5724;42.684;23.252;2023-03-20T11:31:14;94424.47;;;19.12;35.27
11339;BME280;5724;42.684;23.252;2023-03-20T11:36:29;94421.47;;;18.47;34.90
11339;BME280;5724;42.684;23.252;2023-03-20T11:39:21;94415.63;;;18.86;34.85
11339;BME280;5724;42.684;23.252;2023-03-20T11:41:50;94408.59;;;19.16;34.14
11339;BME280;5724;42.684;23.252;2023-03-20T11:44:31;94404.56;;;19.24;34.07
11339;BME280;5724;42.684;23.252;2023-03-20T11:47:11;94391.31;;;19.39;33.92
11339;BME280;5724;42.684;23.252;2023-03-20T11:49:53;94389.66;;;19.79;33.15
11339;BME280;5724;42.684;23.252;2023-03-20T11:52:21;94389.72;;;20.02;32.67
11339;BME280;5724;42.684;23.252;2023-03-20T11:54:51;94383.13;;;20.20;33.12
11339;BME280;5724;42.684;23.252;2023-03-20T11:57:40;94376.84;;;20.16;32.77
11339;BME280;5724;42.684;23.252;2023-03-20T12:00:18;94365.50;;;20.07;32.15
11339;BME280;5724;42.684;23.252;2023-03-20T12:02:45;94364.88;;;20.22;32.30
11339;BME280;5724;42.684;23.252;2023-03-20T12:07:45;94359.28;;;20.73;31.67
11339;BME280;5724;42.684;23.252;2023-03-20T12:10:13;94361.25;;;20.76;31.95
11339;BME280;5724;42.684;23.252;2023-03-20T12:12:48;94359.84;;;20.64;32.47
11339;BME280;5724;42.684;23.252;2023-03-20T12:15:25;94339.97;;;20.42;30.59
11339;BME280;5724;42.684;23.252;2023-03-20T12:25:32;94351.78;;;20.50;30.30
11339;BME280;5724;42.684;23.252;2023-03-20T12:28:02;94346.75;;;20.65;30.38
11339;BME280;5724;42.684;23.252;2023-03-20T12:30:40;94340.06;;;20.62;30.58
11339;BME280;5724;42.684;23.252;2023-03-20T12:35:44;94330.41;;;20.70;29.09
11339;BME280;5724;42.684;23.252;2023-03-20T12:38:27;94332.09;;;21.07;29.74
11339;BME280;5724;42.684;23.252;2023-03-20T12:40:58;94326.84;;;21.33;29.25
11339;BME280;5724;42.684;23.252;2023-03-20T12:47:12;94331.69;;;21.49;28.17
11339;BME280;5724;42.684;23.252;2023-03-20T12:49:46;94318.53;;;21.33;28.17
11339;BME280;5724;42.684;23.252;2023-03-20T12:52:18;94315.44;;;21.27;27.88
11339;BME280;5724;42.684;23.252;2023-03-20T12:55:08;94306.53;;;21.36;28.05
11339;BME280;5724;42.684;23.252;2023-03-20T13:00:31;94306.16;;;20.24;26.95
11339;BME280;5724;42.684;23.252;2023-03-20T13:03:15;94310.94;;;19.12;28.45
11339;BME280;5724;42.684;23.252;2023-03-20T13:11:44;94290.22;;;19.81;27.41
11339;BME280;5724;42.684;23.252;2023-03-20T13:17:35;94279.13;;;20.75;27.08
11339;BME280;5724;42.684;23.252;2023-03-20T13:20:27;94281.88;;;20.98;26.37
11339;BME280;5724;42.684;23.252;2023-03-20T13:41:38;94255.22;;;20.81;25.51
11339;BME280;5724;42.684;23.252;2023-03-20T13:44:05;94249.84;;;20.50;25.66
11339;BME280;5724;42.684;23.252;2023-03-20T13:46:38;94251.31;;;20.78;25.65
11339;BME280;5724;42.684;23.252;2023-03-20T13:49:26;94253.34;;;20.74;26.37
11339;BME280;5724;42.684;23.252;2023-03-20T13:59:59;94241.09;;;20.28;24.34
11339;BME280;5724;42.684;23.252;2023-03-20T14:05:46;94221.97;;;20.57;23.91
11339;BME280;5724;42.684;23.252;2023-03-20T14:08:35;94225.53;;;20.35;24.03
11339;BME280;5724;42.684;23.252;2023-03-20T14:13:33;94219.97;;;20.35;23.99
11339;BME280;5724;42.684;23.252;2023-03-20T14:16:02;94215.84;;;20.46;24.06
11339;BME280;5724;42.684;23.252;2023-03-20T14:18:29;94212.78;;;20.61;24.01
11339;BME280;5724;42.684;23.252;2023-03-20T14:21:08;94219.44;;;20.43;24.23
11339;BME280;5724;42.684;23.252;2023-03-20T14:23:41;94216.41;;;20.34;24.43
11339;BME280;5724;42.684;23.252;2023-03-20T14:26:29;94219.97;;;20.58;24.30
11339;BME280;5724;42.684;23.252;2023-03-20T14:29:39;94212.88;;;20.57;24.52
11339;BME280;5724;42.684;23.252;2023-03-20T14:37:29;94211.22;;;20.99;24.67
11339;BME280;5724;42.684;23.252;2023-03-20T14:40:14;94213.19;;;21.19;24.03
11339;BME280;5724;42.684;23.252;2023-03-20T14:42:55;94200.22;;;21.32;24.01
11339;BME280;5724;42.684;23.252;2023-03-20T14:53:18;94202.66;;;21.10;23.85
11339;BME280;5724;42.684;23.252;2023-03-20T14:55:51;94206.44;;;21.00;24.12
11339;BME280;5724;42.684;23.252;2023-03-20T14:58:46;94188.53;;;20.84;24.53
11339;BME280;5724;42.684;23.252;2023-03-20T15:03:50;94197.47;;;20.72;24.33
11339;BME280;5724;42.684;23.252;2023-03-20T15:06:20;94195.25;;;20.64;24.85
11339;BME280;5724;42.684;23.252;2023-03-20T15:08:50;94194.56;;;20.60;25.00
11339;BME280;5724;42.684;23.252;2023-03-20T15:11:17;94191.44;;;20.34;25.31
11339;BME280;5724;42.684;23.252;2023-03-20T15:13:44;94189.97;;;20.29;26.21
11339;BME280;5724;42.684;23.252;2023-03-20T15:16:12;94194.41;;;20.23;27.33
11339;BME280;5724;42.684;23.252;2023-03-20T15:18:44;94193.13;;;20.08;26.39
11339;BME280;5724;42.684;23.252;2023-03-20T15:21:11;94192.50;;;19.97;26.54
11339;BME280;5724;42.684;23.252;2023-03-20T15:23:43;94176.84;;;19.87;26.20
11339;BME280;5724;42.684;23.252;2023-03-20T15:26:10;94189.50;;;19.88;26.70
11339;BME280;5724;42.684;23.252;2023-03-20T15:28:36;94184.75;;;19.88;27.04
11339;BME280;5724;42.684;23.252;2023-03-20T15:31:04;94191.88;;;19.89;27.19
11339;BME280;5724;42.684;23.252;2023-03-20T15:33:34;94145.56;;;19.63;27.29
11339;BME280;5724;42.684;23.252;2023-03-20T15:36:15;94176.44;;;19.88;27.20
11339;BME280;5724;42.684;23.252;2023-03-20T15:38:43;94185.09;;;19.90;26.96